createdAt,value
2018-07-31T00:00:18.430Z,21.11
2018-07-31T00:01:18.434Z,21.15
2018-07-31T00:02:18.408Z,21.16
2018-07-31T00:03:18.463Z,21.13
2018-07-31T00:04:18.429Z,21.12
2018-07-31T00:05:18.373Z,21.15
2018-07-31T00:06:18.364Z,21.11
2018-07-31T00:07:18.354Z,21.00
2018-07-31T00:08:18.341Z,20.91
2018-07-31T00:09:18.332Z,20.93
2018-07-31T00:10:18.335Z,20.93
2018-07-31T00:11:18.308Z,20.94
2018-07-31T00:12:18.297Z,20.93
2018-07-31T00:13:18.288Z,20.81
2018-07-31T00:14:18.276Z,20.75
2018-07-31T00:15:18.287Z,20.93
2018-07-31T00:16:18.262Z,20.78
2018-07-31T00:17:18.244Z,20.78
2018-07-31T00:18:18.233Z,20.78
2018-07-31T00:19:18.239Z,20.78
2018-07-31T00:20:18.211Z,20.76
2018-07-31T00:21:18.202Z,20.78
2018-07-31T00:22:18.194Z,20.73
2018-07-31T00:23:18.182Z,20.75
2018-07-31T00:24:18.195Z,20.73
2018-07-31T00:25:18.158Z,20.75
2018-07-31T00:26:18.147Z,20.75
2018-07-31T00:27:18.141Z,20.79
2018-07-31T00:28:18.132Z,20.87
2018-07-31T00:29:18.118Z,20.75
2018-07-31T00:30:18.124Z,20.69
2018-07-31T00:31:18.112Z,20.73
2018-07-31T00:32:18.082Z,20.75
2018-07-31T00:33:18.070Z,20.64
2018-07-31T00:34:18.069Z,20.57
2018-07-31T00:35:18.052Z,20.57
2018-07-31T00:36:18.059Z,20.58
2018-07-31T00:37:18.029Z,20.51
2018-07-31T00:38:18.018Z,20.54
2018-07-31T00:39:18.009Z,20.60
2018-07-31T00:40:18.015Z,20.53
2018-07-31T00:41:17.984Z,20.44
2018-07-31T00:42:17.974Z,20.48
2018-07-31T00:43:17.980Z,20.51
2018-07-31T00:44:17.955Z,20.40
2018-07-31T00:45:17.960Z,20.54
2018-07-31T00:46:17.931Z,20.50
2018-07-31T00:47:17.924Z,20.40
2018-07-31T00:48:17.911Z,20.41
2018-07-31T00:49:17.898Z,20.46
2018-07-31T00:50:17.909Z,20.38
2018-07-31T00:51:17.875Z,20.38
2018-07-31T00:52:17.868Z,20.38
2018-07-31T00:53:17.872Z,20.34
2018-07-31T00:54:17.844Z,20.30
2018-07-31T00:55:17.834Z,20.30
2018-07-31T00:56:17.840Z,20.34
2018-07-31T00:57:17.814Z,20.31
2018-07-31T00:58:17.802Z,20.25
2018-07-31T00:59:17.793Z,20.22
2018-07-31T01:00:17.783Z,20.22
2018-07-31T01:01:17.769Z,20.19
2018-07-31T01:02:17.779Z,20.13
2018-07-31T01:03:17.749Z,20.20
2018-07-31T01:04:17.770Z,20.15
2018-07-31T01:05:17.767Z,20.13
2018-07-31T01:06:17.719Z,20.16
2018-07-31T01:07:17.709Z,20.16
2018-07-31T01:08:17.693Z,20.12
2018-07-31T01:09:17.728Z,20.10
2018-07-31T01:10:17.672Z,20.13
2018-07-31T01:11:17.662Z,20.17
2018-07-31T01:12:17.652Z,20.10
2018-07-31T01:13:17.641Z,20.12
2018-07-31T01:14:17.626Z,20.16
2018-07-31T01:15:17.636Z,20.20
2018-07-31T01:16:17.635Z,20.19
2018-07-31T01:17:17.596Z,20.13
2018-07-31T01:18:17.586Z,20.15
2018-07-31T01:19:17.595Z,20.10
2018-07-31T01:20:17.566Z,20.10
2018-07-31T01:21:17.552Z,20.02
2018-07-31T01:22:17.542Z,20.04
2018-07-31T01:23:17.529Z,20.02
2018-07-31T01:24:17.525Z,20.07
2018-07-31T01:25:17.526Z,20.07
2018-07-31T01:26:17.503Z,20.04
2018-07-31T01:27:17.487Z,20.00
2018-07-31T01:28:17.478Z,20.01
2018-07-31T01:29:17.465Z,19.90
2018-07-31T01:30:17.468Z,19.90
2018-07-31T01:31:17.445Z,19.95
2018-07-31T01:32:17.432Z,19.90
2018-07-31T01:33:17.424Z,19.95
2018-07-31T01:34:17.409Z,19.87
2018-07-31T01:35:17.416Z,19.86
2018-07-31T01:36:17.404Z,19.83
2018-07-31T01:37:17.382Z,19.94
2018-07-31T01:38:17.367Z,19.79
2018-07-31T01:39:17.356Z,19.89
2018-07-31T01:40:17.362Z,19.83
2018-07-31T01:41:17.331Z,19.87
2018-07-31T01:42:17.320Z,19.76
2018-07-31T01:43:17.311Z,19.83
2018-07-31T01:44:17.301Z,19.80
2018-07-31T01:45:17.304Z,19.82
2018-07-31T01:46:17.281Z,19.89
2018-07-31T01:47:17.269Z,19.83
2018-07-31T01:48:17.255Z,19.85
2018-07-31T01:49:17.263Z,19.82
2018-07-31T01:50:17.233Z,19.83
2018-07-31T01:51:17.226Z,19.86
2018-07-31T01:52:17.230Z,19.98
2018-07-31T01:53:17.207Z,19.90
2018-07-31T01:54:17.195Z,19.97
2018-07-31T01:55:17.185Z,19.90
2018-07-31T01:56:17.169Z,19.90
2018-07-31T01:57:17.181Z,19.90
2018-07-31T01:58:17.151Z,19.89
2018-07-31T01:59:17.135Z,19.83
2018-07-31T02:00:17.126Z,19.80
2018-07-31T02:01:17.125Z,19.83
2018-07-31T02:02:17.103Z,19.83
2018-07-31T02:03:17.108Z,19.83
2018-07-31T02:04:17.085Z,19.79
2018-07-31T02:05:17.069Z,19.79
2018-07-31T02:06:17.088Z,19.78
2018-07-31T02:07:17.047Z,19.72
2018-07-31T02:08:17.076Z,19.71
2018-07-31T02:09:17.026Z,19.75
2018-07-31T02:10:17.015Z,19.75
2018-07-31T02:11:17.005Z,19.70
2018-07-31T02:12:16.995Z,19.72
2018-07-31T02:13:16.983Z,19.72
2018-07-31T02:14:16.988Z,19.71
2018-07-31T02:15:16.961Z,19.71
2018-07-31T02:16:16.956Z,19.72
2018-07-31T02:17:16.985Z,19.64
2018-07-31T02:18:16.948Z,19.62
2018-07-31T02:19:16.958Z,19.50
2018-07-31T02:20:16.910Z,19.65
2018-07-31T02:21:16.895Z,19.62
2018-07-31T02:22:16.883Z,19.49
2018-07-31T02:23:16.884Z,19.61
2018-07-31T02:24:16.865Z,19.60
2018-07-31T02:25:16.868Z,19.55
2018-07-31T02:26:16.840Z,19.55
2018-07-31T02:27:16.829Z,19.60
2018-07-31T02:28:16.959Z,19.60
2018-07-31T02:29:16.820Z,19.57
2018-07-31T02:30:16.817Z,19.52
2018-07-31T02:31:16.785Z,19.45
2018-07-31T02:32:16.771Z,19.50
2018-07-31T02:33:16.762Z,19.49
2018-07-31T02:34:16.768Z,19.47
2018-07-31T02:35:16.756Z,19.46
2018-07-31T02:36:16.728Z,19.55
2018-07-31T02:37:16.724Z,19.46
2018-07-31T02:38:16.707Z,19.52
2018-07-31T02:39:16.693Z,19.45
2018-07-31T02:40:16.706Z,19.46
2018-07-31T02:41:16.673Z,19.46
2018-07-31T02:42:16.662Z,19.47
2018-07-31T02:43:16.657Z,19.52
2018-07-31T02:44:16.662Z,19.49
2018-07-31T02:45:16.634Z,19.46
2018-07-31T02:46:16.648Z,19.46
2018-07-31T02:47:16.605Z,19.46
2018-07-31T02:48:16.593Z,19.45
2018-07-31T02:49:16.581Z,19.50
2018-07-31T02:50:16.572Z,19.46
2018-07-31T02:51:16.580Z,19.46
2018-07-31T02:52:16.553Z,19.42
2018-07-31T02:53:16.543Z,19.46
2018-07-31T02:54:16.530Z,19.42
2018-07-31T02:55:16.519Z,19.45
2018-07-31T02:56:16.505Z,19.42
2018-07-31T02:57:16.511Z,19.42
2018-07-31T02:58:16.483Z,19.38
2018-07-31T02:59:16.467Z,19.34
2018-07-31T03:00:16.463Z,19.49
2018-07-31T03:01:16.479Z,19.50
2018-07-31T03:02:16.443Z,19.43
2018-07-31T03:03:16.425Z,19.42
2018-07-31T03:04:16.422Z,19.39
2018-07-31T03:05:16.406Z,19.39
2018-07-31T03:06:16.395Z,19.42
2018-07-31T03:07:16.406Z,19.43
2018-07-31T03:08:16.427Z,19.43
2018-07-31T03:09:16.357Z,19.28
2018-07-31T03:10:16.353Z,19.39
2018-07-31T03:11:16.342Z,19.28
2018-07-31T03:12:16.324Z,19.31
2018-07-31T03:13:16.328Z,19.40
2018-07-31T03:14:16.303Z,19.39
2018-07-31T03:15:16.296Z,19.32
2018-07-31T03:16:16.286Z,19.32
2018-07-31T03:17:16.273Z,19.31
2018-07-31T03:18:16.280Z,19.30
2018-07-31T03:19:16.251Z,19.31
2018-07-31T03:20:16.236Z,19.27
2018-07-31T03:21:16.234Z,19.23
2018-07-31T03:22:16.219Z,19.23
2018-07-31T03:23:16.204Z,19.25
2018-07-31T03:24:16.224Z,19.16
2018-07-31T03:25:16.185Z,19.21
2018-07-31T03:26:16.202Z,19.20
2018-07-31T03:27:16.161Z,19.16
2018-07-31T03:28:16.190Z,19.20
2018-07-31T03:29:16.154Z,19.23
2018-07-31T03:30:16.128Z,19.17
2018-07-31T03:31:16.116Z,19.15
2018-07-31T03:32:16.108Z,19.13
2018-07-31T03:33:16.094Z,19.09
2018-07-31T03:34:16.102Z,19.07
2018-07-31T03:35:16.073Z,19.01
2018-07-31T03:36:16.061Z,19.06
2018-07-31T03:37:16.051Z,19.10
2018-07-31T03:38:16.039Z,19.10
2018-07-31T03:39:16.054Z,18.96
2018-07-31T03:40:16.017Z,19.01
2018-07-31T03:41:16.007Z,18.96
2018-07-31T03:42:15.996Z,19.01
2018-07-31T03:43:15.982Z,18.99
2018-07-31T03:44:15.970Z,18.97
2018-07-31T03:45:15.978Z,18.94
2018-07-31T03:46:15.949Z,18.94
2018-07-31T03:47:15.937Z,18.94
2018-07-31T03:48:15.928Z,18.97
2018-07-31T03:49:15.958Z,18.97
2018-07-31T03:50:15.909Z,18.94
2018-07-31T03:51:15.897Z,18.89
2018-07-31T03:52:15.884Z,18.97
2018-07-31T03:53:15.874Z,18.93
2018-07-31T03:54:15.862Z,19.01
2018-07-31T03:55:15.865Z,19.05
2018-07-31T03:56:15.885Z,19.02
2018-07-31T03:57:15.827Z,19.05
2018-07-31T03:58:15.832Z,19.09
2018-07-31T03:59:15.807Z,19.06
2018-07-31T04:00:15.810Z,19.06
2018-07-31T04:01:15.785Z,19.02
2018-07-31T04:02:15.772Z,19.06
2018-07-31T04:03:15.762Z,19.07
2018-07-31T04:04:15.768Z,19.01
2018-07-31T04:05:15.741Z,19.02
2018-07-31T04:06:15.748Z,19.09
2018-07-31T04:07:15.715Z,19.09
2018-07-31T04:08:15.703Z,19.21
2018-07-31T04:09:15.695Z,19.15
2018-07-31T04:10:15.684Z,19.21
2018-07-31T04:11:15.686Z,19.23
2018-07-31T04:12:15.663Z,19.21
2018-07-31T04:13:15.651Z,19.21
2018-07-31T04:14:15.639Z,19.17
2018-07-31T04:15:15.626Z,19.21
2018-07-31T04:16:15.632Z,19.28
2018-07-31T04:17:15.722Z,19.21
2018-07-31T04:18:15.593Z,19.23
2018-07-31T04:19:15.602Z,19.32
2018-07-31T04:20:15.593Z,19.27
2018-07-31T04:21:15.563Z,19.32
2018-07-31T04:22:15.549Z,19.31
2018-07-31T04:23:15.540Z,19.34
2018-07-31T04:24:15.530Z,19.25
2018-07-31T04:25:15.519Z,19.32
2018-07-31T04:26:15.525Z,19.38
2018-07-31T04:27:15.511Z,19.39
2018-07-31T04:28:15.526Z,19.42
2018-07-31T04:29:15.476Z,19.43
2018-07-31T04:30:15.529Z,19.47
2018-07-31T04:31:15.477Z,19.60
2018-07-31T04:32:15.439Z,19.68
2018-07-31T04:33:15.431Z,19.85
2018-07-31T04:34:15.437Z,19.83
2018-07-31T04:35:15.410Z,19.92
2018-07-31T04:36:15.512Z,19.90
2018-07-31T04:37:15.393Z,20.02
2018-07-31T04:38:15.405Z,20.01
2018-07-31T04:39:15.367Z,20.05
2018-07-31T04:40:15.356Z,20.16
2018-07-31T04:41:15.390Z,20.16
2018-07-31T04:42:15.344Z,20.20
2018-07-31T04:43:15.323Z,20.25
2018-07-31T04:44:15.326Z,20.20
2018-07-31T04:45:15.301Z,20.31
2018-07-31T04:46:15.287Z,20.31
2018-07-31T04:47:15.278Z,20.34
2018-07-31T04:48:15.268Z,20.40
2018-07-31T04:49:15.276Z,20.35
2018-07-31T04:50:15.249Z,20.51
2018-07-31T04:51:15.235Z,20.41
2018-07-31T04:52:15.224Z,20.41
2018-07-31T04:53:15.211Z,20.53
2018-07-31T04:54:15.227Z,20.51
2018-07-31T04:55:15.192Z,20.46
2018-07-31T04:56:15.181Z,20.57
2018-07-31T04:57:15.180Z,20.60
2018-07-31T04:58:15.163Z,20.71
2018-07-31T04:59:15.171Z,20.64
2018-07-31T05:00:15.144Z,20.69
2018-07-31T05:01:15.125Z,20.68
2018-07-31T05:02:15.121Z,20.76
2018-07-31T05:03:15.109Z,20.82
2018-07-31T05:04:15.092Z,20.93
2018-07-31T05:05:15.128Z,20.93
2018-07-31T05:06:15.071Z,21.03
2018-07-31T05:07:15.066Z,21.08
2018-07-31T05:08:15.054Z,21.03
2018-07-31T05:09:15.041Z,21.06
2018-07-31T05:10:15.030Z,21.16
2018-07-31T05:11:15.038Z,21.28
2018-07-31T05:12:15.009Z,21.31
2018-07-31T05:13:14.997Z,21.19
2018-07-31T05:14:14.990Z,21.33
2018-07-31T05:15:14.997Z,21.45
2018-07-31T05:16:14.965Z,21.49
2018-07-31T05:17:14.951Z,21.49
2018-07-31T05:18:14.992Z,21.55
2018-07-31T05:19:14.929Z,21.71
2018-07-31T05:20:14.923Z,21.66
2018-07-31T05:21:14.935Z,21.74
2018-07-31T05:22:14.896Z,21.86
2018-07-31T05:23:14.886Z,21.91
2018-07-31T05:24:14.878Z,21.96
2018-07-31T05:25:14.886Z,21.99
2018-07-31T05:26:14.855Z,22.05
2018-07-31T05:27:14.876Z,22.04
2018-07-31T05:28:14.834Z,22.17
2018-07-31T05:29:14.822Z,22.09
2018-07-31T05:30:14.816Z,22.29
2018-07-31T05:31:14.815Z,22.30
2018-07-31T05:32:14.787Z,22.23
2018-07-31T05:33:14.780Z,22.42
2018-07-31T05:34:14.771Z,22.36
2018-07-31T05:35:14.759Z,22.44
2018-07-31T05:36:14.762Z,22.45
2018-07-31T05:37:14.735Z,22.51
2018-07-31T05:38:14.731Z,22.54
2018-07-31T05:39:14.718Z,22.56
2018-07-31T05:40:14.705Z,22.64
2018-07-31T05:41:14.709Z,22.76
2018-07-31T05:42:14.681Z,22.88
2018-07-31T05:43:14.672Z,22.91
2018-07-31T05:44:14.667Z,22.94
2018-07-31T05:45:14.648Z,22.84
2018-07-31T05:46:14.658Z,22.84
2018-07-31T05:47:14.630Z,22.89
2018-07-31T05:48:14.619Z,22.99
2018-07-31T05:49:14.609Z,22.96
2018-07-31T05:50:14.600Z,22.97
2018-07-31T05:51:14.601Z,23.07
2018-07-31T05:52:14.576Z,23.04
2018-07-31T05:53:14.589Z,23.15
2018-07-31T05:54:14.556Z,23.19
2018-07-31T05:55:14.547Z,23.25
2018-07-31T05:56:14.535Z,23.35
2018-07-31T05:57:14.557Z,23.47
2018-07-31T05:58:14.513Z,23.54
2018-07-31T05:59:14.502Z,23.47
2018-07-31T06:00:14.491Z,23.59
2018-07-31T06:01:14.480Z,23.75
2018-07-31T06:02:14.488Z,23.69
2018-07-31T06:03:14.477Z,23.77
2018-07-31T06:04:14.447Z,23.78
2018-07-31T06:05:14.440Z,23.86
2018-07-31T06:06:14.432Z,23.90
2018-07-31T06:07:14.433Z,23.93
2018-07-31T06:08:14.447Z,23.86
2018-07-31T06:09:14.402Z,23.78
2018-07-31T06:10:14.388Z,23.68
2018-07-31T06:11:14.383Z,23.72
2018-07-31T06:12:14.364Z,23.82
2018-07-31T06:13:14.349Z,24.00
2018-07-31T06:14:14.352Z,23.94
2018-07-31T06:15:14.329Z,23.87
2018-07-31T06:16:14.319Z,23.68
2018-07-31T06:17:14.306Z,23.54
2018-07-31T06:18:14.294Z,23.47
2018-07-31T06:19:14.296Z,23.25
2018-07-31T06:20:14.271Z,23.19
2018-07-31T06:21:14.264Z,23.04
2018-07-31T06:22:14.248Z,23.16
2018-07-31T06:23:14.238Z,23.39
2018-07-31T06:24:14.242Z,23.45
2018-07-31T06:25:14.215Z,23.64
2018-07-31T06:26:14.204Z,23.56
2018-07-31T06:27:14.194Z,23.57
2018-07-31T06:28:14.183Z,23.54
2018-07-31T06:29:14.189Z,23.68
2018-07-31T06:30:14.161Z,23.52
2018-07-31T06:31:14.151Z,23.50
2018-07-31T06:32:14.138Z,23.53
2018-07-31T06:33:14.128Z,23.69
2018-07-31T06:34:14.133Z,23.78
2018-07-31T06:35:14.103Z,23.96
2018-07-31T06:36:14.114Z,23.97
2018-07-31T06:37:14.100Z,23.94
2018-07-31T06:38:14.072Z,24.05
2018-07-31T06:39:14.093Z,24.18
2018-07-31T06:40:14.051Z,24.31
2018-07-31T06:41:14.043Z,24.33
2018-07-31T06:42:14.051Z,24.18
2018-07-31T06:43:14.018Z,24.19
2018-07-31T06:44:14.012Z,24.30
2018-07-31T06:45:14.020Z,24.29
2018-07-31T06:46:13.985Z,24.23
2018-07-31T06:47:13.974Z,24.29
2018-07-31T06:48:13.981Z,24.37
2018-07-31T06:49:13.972Z,24.55
2018-07-31T06:50:13.942Z,24.64
2018-07-31T06:51:13.950Z,24.71
2018-07-31T06:52:13.923Z,24.94
2018-07-31T06:53:13.915Z,24.89
2018-07-31T06:54:13.915Z,25.01
2018-07-31T06:55:13.896Z,24.92
2018-07-31T06:56:13.881Z,24.93
2018-07-31T06:57:13.886Z,25.01
2018-07-31T06:58:13.880Z,24.99
2018-07-31T06:59:13.845Z,24.99
2018-07-31T07:00:13.834Z,25.07
2018-07-31T07:01:13.825Z,25.19
2018-07-31T07:02:13.889Z,25.29
2018-07-31T07:03:13.812Z,25.44
2018-07-31T07:04:13.809Z,25.49
2018-07-31T07:05:13.782Z,25.71
2018-07-31T07:06:13.772Z,25.64
2018-07-31T07:07:13.767Z,25.74
2018-07-31T07:08:13.774Z,25.75
2018-07-31T07:09:13.793Z,25.64
2018-07-31T07:10:13.731Z,25.49
2018-07-31T07:11:13.719Z,25.59
2018-07-31T07:12:13.706Z,25.75
2018-07-31T07:13:13.720Z,25.79
2018-07-31T07:14:13.706Z,26.04
2018-07-31T07:15:13.676Z,26.04
2018-07-31T07:16:13.666Z,26.34
2018-07-31T07:17:13.664Z,26.29
2018-07-31T07:18:13.687Z,26.34
2018-07-31T07:19:13.634Z,26.38
2018-07-31T07:20:13.625Z,26.44
2018-07-31T07:21:13.613Z,26.39
2018-07-31T07:22:13.603Z,26.56
2018-07-31T07:23:13.593Z,26.71
2018-07-31T07:24:13.603Z,26.93
2018-07-31T07:25:13.576Z,27.06
2018-07-31T07:26:13.560Z,27.35
2018-07-31T07:27:13.548Z,27.43
2018-07-31T07:28:13.537Z,27.68
2018-07-31T07:29:13.526Z,27.68
2018-07-31T07:30:13.531Z,27.66
2018-07-31T07:31:13.506Z,27.59
2018-07-31T07:32:13.500Z,27.66
2018-07-31T07:33:13.483Z,27.46
2018-07-31T07:34:13.492Z,27.46
2018-07-31T07:35:13.462Z,27.74
2018-07-31T07:36:13.455Z,28.01
2018-07-31T07:37:13.444Z,27.90
2018-07-31T07:38:13.432Z,27.78
2018-07-31T07:39:13.438Z,28.01
2018-07-31T07:40:13.481Z,28.14
2018-07-31T07:41:13.419Z,28.17
2018-07-31T07:42:13.389Z,28.38
2018-07-31T07:43:13.391Z,28.51
2018-07-31T07:44:13.391Z,28.40
2018-07-31T07:45:13.359Z,28.51
2018-07-31T07:46:13.367Z,28.61
2018-07-31T07:47:13.341Z,28.74
2018-07-31T07:48:13.333Z,28.50
2018-07-31T07:49:13.318Z,28.70
2018-07-31T07:50:13.323Z,28.70
2018-07-31T07:51:13.298Z,28.57
2018-07-31T07:52:13.327Z,28.51
2018-07-31T07:53:13.273Z,28.51
2018-07-31T07:54:13.494Z,28.48
2018-07-31T07:55:13.257Z,28.55
2018-07-31T07:56:13.280Z,28.73
2018-07-31T07:57:13.252Z,28.88
2018-07-31T07:58:13.225Z,28.98
2018-07-31T07:59:13.232Z,29.05
2018-07-31T08:00:13.201Z,29.17
2018-07-31T08:01:13.191Z,29.07
2018-07-31T08:02:13.224Z,29.03
2018-07-31T08:03:13.174Z,29.02
2018-07-31T08:04:13.207Z,28.70
2018-07-31T08:05:13.151Z,28.69
2018-07-31T08:06:13.144Z,28.74
2018-07-31T08:07:13.133Z,28.77
2018-07-31T08:08:13.135Z,28.77
2018-07-31T08:09:13.113Z,28.38
2018-07-31T08:10:13.113Z,27.95
2018-07-31T08:11:13.092Z,27.83
2018-07-31T08:12:13.078Z,28.21
2018-07-31T08:13:13.081Z,28.72
2018-07-31T08:14:13.061Z,29.15
2018-07-31T08:15:13.051Z,29.25
2018-07-31T08:16:13.035Z,29.21
2018-07-31T08:17:13.026Z,29.23
2018-07-31T08:18:13.032Z,29.15
2018-07-31T08:19:13.003Z,29.21
2018-07-31T08:20:13.024Z,29.57
2018-07-31T08:21:12.986Z,29.48
2018-07-31T08:22:12.973Z,29.81
2018-07-31T08:23:12.998Z,29.89
2018-07-31T08:24:12.954Z,30.01
2018-07-31T08:25:12.942Z,30.08
2018-07-31T08:26:12.934Z,30.01
2018-07-31T08:27:12.919Z,29.89
2018-07-31T08:28:12.910Z,29.66
2018-07-31T08:29:12.943Z,29.18
2018-07-31T08:30:12.887Z,28.92
2018-07-31T08:31:12.876Z,28.69
2018-07-31T08:32:12.872Z,28.69
2018-07-31T08:33:12.857Z,28.79
2018-07-31T08:34:12.849Z,28.82
2018-07-31T08:35:12.858Z,28.51
2018-07-31T08:36:12.830Z,28.76
2018-07-31T08:37:12.815Z,29.10
2018-07-31T08:38:12.807Z,29.44
2018-07-31T08:39:12.793Z,29.78
2018-07-31T08:40:12.804Z,29.85
2018-07-31T08:41:12.800Z,29.52
2018-07-31T08:42:12.762Z,29.45
2018-07-31T08:43:12.755Z,29.57
2018-07-31T08:44:12.743Z,30.01
2018-07-31T08:45:12.747Z,30.21
2018-07-31T08:46:12.727Z,30.07
2018-07-31T08:47:12.741Z,30.46
2018-07-31T08:48:12.702Z,30.48
2018-07-31T08:49:12.692Z,30.54
2018-07-31T08:50:12.703Z,30.83
2018-07-31T08:51:12.675Z,31.20
2018-07-31T08:52:12.665Z,30.90
2018-07-31T08:53:12.667Z,31.03
2018-07-31T08:54:12.644Z,31.10
2018-07-31T08:55:12.638Z,31.05
2018-07-31T08:56:12.637Z,30.63
2018-07-31T08:57:12.614Z,30.51
2018-07-31T08:58:12.628Z,29.79
2018-07-31T08:59:12.591Z,29.89
2018-07-31T09:00:12.587Z,30.21
2018-07-31T09:01:12.572Z,30.25
2018-07-31T09:02:12.559Z,30.21
2018-07-31T09:03:13.382Z,30.64
2018-07-31T09:04:12.559Z,30.67
2018-07-31T09:05:12.537Z,30.96
2018-07-31T09:06:12.527Z,31.01
2018-07-31T09:07:12.510Z,30.91
2018-07-31T09:08:12.583Z,30.61
2018-07-31T09:09:12.495Z,30.63
2018-07-31T09:10:12.486Z,30.30
2018-07-31T09:11:12.493Z,30.13
2018-07-31T09:12:12.469Z,30.01
2018-07-31T09:13:12.456Z,30.03
2018-07-31T09:14:12.443Z,30.01
2018-07-31T09:15:12.437Z,29.99
2018-07-31T09:16:12.441Z,30.19
2018-07-31T09:17:12.458Z,30.42
2018-07-31T09:18:12.409Z,30.34
2018-07-31T09:19:12.400Z,30.45
2018-07-31T09:20:12.387Z,30.67
2018-07-31T09:21:12.379Z,31.07
2018-07-31T09:22:12.378Z,31.27
2018-07-31T09:23:12.373Z,31.54
2018-07-31T09:24:12.349Z,31.85
2018-07-31T09:25:12.338Z,31.90
2018-07-31T09:26:12.326Z,32.21
2018-07-31T09:27:12.333Z,32.46
2018-07-31T09:28:12.305Z,32.36
2018-07-31T09:29:12.295Z,32.69
2018-07-31T09:30:12.287Z,32.72
2018-07-31T09:31:12.279Z,32.91
2018-07-31T09:32:12.283Z,33.21
2018-07-31T09:33:12.272Z,33.40
2018-07-31T09:34:12.250Z,33.35
2018-07-31T09:35:12.236Z,33.37
2018-07-31T09:36:12.229Z,33.38
2018-07-31T09:37:12.247Z,33.21
2018-07-31T09:38:12.268Z,32.62
2018-07-31T09:39:12.202Z,32.03
2018-07-31T09:40:12.192Z,31.95
2018-07-31T09:41:12.180Z,31.99
2018-07-31T09:42:12.173Z,32.03
2018-07-31T09:43:12.188Z,31.85
2018-07-31T09:44:12.153Z,31.90
2018-07-31T09:45:12.140Z,32.05
2018-07-31T09:46:12.130Z,31.97
2018-07-31T09:47:12.124Z,31.98
2018-07-31T09:48:12.117Z,31.90
2018-07-31T09:49:12.141Z,31.84
2018-07-31T09:50:12.100Z,31.76
2018-07-31T09:51:12.085Z,31.88
2018-07-31T09:52:12.074Z,32.12
2018-07-31T09:53:12.063Z,32.10
2018-07-31T09:54:12.109Z,32.05
2018-07-31T09:55:12.044Z,32.13
2018-07-31T09:56:12.040Z,32.27
2018-07-31T09:57:12.147Z,32.68
2018-07-31T09:58:12.017Z,32.88
2018-07-31T09:59:12.025Z,33.15
2018-07-31T10:00:12.025Z,33.14
2018-07-31T10:01:11.992Z,32.84
2018-07-31T10:02:11.978Z,32.78
2018-07-31T10:03:11.971Z,33.26
2018-07-31T10:04:11.973Z,33.74
2018-07-31T10:05:11.980Z,34.49
2018-07-31T10:06:11.940Z,35.24
2018-07-31T10:07:11.934Z,35.69
2018-07-31T10:08:11.921Z,36.35
2018-07-31T10:09:11.931Z,36.27
2018-07-31T10:10:11.901Z,35.31
2018-07-31T10:11:11.893Z,34.38
2018-07-31T10:12:11.891Z,34.15
2018-07-31T10:13:11.878Z,35.29
2018-07-31T10:14:11.884Z,35.27
2018-07-31T10:15:11.856Z,34.86
2018-07-31T10:16:11.849Z,35.17
2018-07-31T10:17:11.842Z,35.65
2018-07-31T10:18:11.960Z,36.46
2018-07-31T10:19:12.010Z,36.21
2018-07-31T10:20:11.812Z,35.39
2018-07-31T10:21:11.804Z,34.24
2018-07-31T10:22:11.795Z,34.72
2018-07-31T10:23:11.787Z,35.29
2018-07-31T10:24:11.800Z,35.92
2018-07-31T10:25:11.805Z,35.85
2018-07-31T10:26:11.761Z,35.07
2018-07-31T10:27:11.752Z,34.91
2018-07-31T10:28:11.739Z,34.48
2018-07-31T10:29:11.731Z,33.59
2018-07-31T10:30:11.724Z,32.90
2018-07-31T10:31:11.734Z,32.98
2018-07-31T10:32:11.702Z,33.14
2018-07-31T10:33:11.697Z,33.59
2018-07-31T10:34:11.693Z,34.01
2018-07-31T10:35:11.677Z,34.16
2018-07-31T10:36:11.681Z,34.18
2018-07-31T10:37:11.658Z,33.79
2018-07-31T10:38:11.650Z,33.92
2018-07-31T10:39:11.642Z,34.45
2018-07-31T10:40:11.629Z,34.78
2018-07-31T10:41:11.636Z,34.88
2018-07-31T10:42:11.654Z,34.72
2018-07-31T10:43:11.603Z,34.86
2018-07-31T10:44:11.596Z,34.80
2018-07-31T10:45:11.618Z,34.24
2018-07-31T10:46:11.575Z,34.27
2018-07-31T10:47:11.578Z,33.86
2018-07-31T10:48:11.584Z,33.62
2018-07-31T10:49:11.550Z,33.66
2018-07-31T10:50:11.542Z,33.45
2018-07-31T10:51:11.604Z,33.44
2018-07-31T10:52:11.517Z,33.41
2018-07-31T10:53:11.508Z,33.44
2018-07-31T10:54:11.514Z,33.90
2018-07-31T10:55:11.492Z,34.16
2018-07-31T10:56:11.483Z,34.46
2018-07-31T10:57:11.493Z,34.73
2018-07-31T10:58:11.574Z,35.12
2018-07-31T10:59:11.482Z,35.32
2018-07-31T11:00:11.491Z,35.61
2018-07-31T11:01:11.439Z,35.49
2018-07-31T11:02:11.428Z,35.15
2018-07-31T11:03:11.537Z,35.00
2018-07-31T11:04:11.429Z,35.31
2018-07-31T11:05:11.419Z,35.40
2018-07-31T11:06:11.420Z,35.27
2018-07-31T11:07:11.380Z,35.32
2018-07-31T11:08:11.375Z,35.56
2018-07-31T11:09:11.892Z,36.13
2018-07-31T11:10:11.355Z,36.48
2018-07-31T11:11:11.360Z,36.84
2018-07-31T11:12:11.367Z,36.57
2018-07-31T11:13:11.347Z,36.55
2018-07-31T11:14:11.331Z,36.68
2018-07-31T11:15:11.319Z,36.79
2018-07-31T11:16:11.306Z,37.09
2018-07-31T11:17:11.299Z,37.46
2018-07-31T11:18:11.307Z,37.73
2018-07-31T11:19:11.285Z,38.04
2018-07-31T11:20:11.276Z,38.34
2018-07-31T11:21:11.275Z,38.62
2018-07-31T11:22:11.259Z,38.28
2018-07-31T11:23:11.253Z,37.85
2018-07-31T11:24:11.266Z,37.40
2018-07-31T11:25:11.237Z,36.93
2018-07-31T11:26:11.231Z,37.06
2018-07-31T11:27:11.220Z,37.45
2018-07-31T11:28:11.217Z,37.87
2018-07-31T11:29:11.219Z,38.24
2018-07-31T11:30:11.201Z,38.53
2018-07-31T11:31:11.194Z,38.98
2018-07-31T11:32:11.200Z,38.95
2018-07-31T11:33:11.271Z,38.90
2018-07-31T11:34:11.164Z,38.55
2018-07-31T11:35:11.159Z,38.79
2018-07-31T11:36:11.173Z,38.82
2018-07-31T11:37:11.144Z,38.87
2018-07-31T11:38:11.143Z,39.10
2018-07-31T11:39:11.132Z,39.34
2018-07-31T11:40:11.119Z,39.41
2018-07-31T11:41:11.111Z,39.34
2018-07-31T11:42:11.126Z,39.80
2018-07-31T11:43:11.101Z,39.91
2018-07-31T11:44:11.095Z,39.87
2018-07-31T11:45:11.088Z,39.70
2018-07-31T11:46:11.082Z,39.66
2018-07-31T11:47:11.109Z,39.97
2018-07-31T11:48:11.067Z,40.11
2018-07-31T11:49:11.059Z,40.10
2018-07-31T11:50:11.071Z,40.25
2018-07-31T11:51:11.044Z,40.85
2018-07-31T11:52:11.036Z,41.28
2018-07-31T11:53:11.044Z,41.38
2018-07-31T11:54:11.019Z,40.33
2018-07-31T11:55:11.019Z,39.66
2018-07-31T11:56:11.006Z,39.80
2018-07-31T11:57:11.018Z,40.44
2018-07-31T11:58:10.994Z,40.48
2018-07-31T11:59:11.011Z,40.19
2018-07-31T12:00:10.981Z,40.71
2018-07-31T12:01:10.986Z,40.13
2018-07-31T12:02:10.968Z,39.59
2018-07-31T12:03:10.963Z,39.99
2018-07-31T12:04:11.033Z,40.16
2018-07-31T12:05:10.949Z,40.09
2018-07-31T12:06:10.937Z,39.87
2018-07-31T12:07:10.927Z,39.78
2018-07-31T12:08:10.921Z,39.51
2018-07-31T12:09:10.914Z,39.59
2018-07-31T12:10:10.926Z,39.10
2018-07-31T12:11:10.906Z,39.16
2018-07-31T12:12:10.903Z,39.43
2018-07-31T12:13:10.904Z,39.47
2018-07-31T12:14:10.883Z,39.72
2018-07-31T12:15:10.889Z,39.82
2018-07-31T12:16:10.862Z,40.09
2018-07-31T12:17:10.857Z,39.97
2018-07-31T12:18:10.875Z,38.84
2018-07-31T12:19:10.888Z,38.49
2018-07-31T12:20:10.838Z,39.69
2018-07-31T12:21:10.826Z,39.41
2018-07-31T12:22:10.823Z,39.53
2018-07-31T12:23:10.814Z,39.50
2018-07-31T12:24:10.817Z,39.13
2018-07-31T12:25:10.796Z,39.56
2018-07-31T12:26:10.791Z,38.68
2018-07-31T12:27:10.780Z,38.59
2018-07-31T12:28:10.776Z,38.60
2018-07-31T12:29:10.789Z,38.84
2018-07-31T12:30:10.759Z,38.53
2018-07-31T12:31:10.758Z,38.56
2018-07-31T12:32:10.744Z,38.24
2018-07-31T12:33:10.844Z,38.14
2018-07-31T12:34:10.755Z,38.60
2018-07-31T12:35:10.723Z,38.82
2018-07-31T12:36:10.730Z,39.70
2018-07-31T12:37:10.704Z,39.99
2018-07-31T12:38:10.713Z,39.41
2018-07-31T12:39:10.691Z,39.70
2018-07-31T12:40:10.680Z,39.39
2018-07-31T12:41:10.694Z,39.68
2018-07-31T12:42:10.666Z,39.96
2018-07-31T12:43:10.662Z,40.24
2018-07-31T12:44:10.760Z,40.15
2018-07-31T12:45:10.660Z,40.07
2018-07-31T12:46:10.644Z,39.96
2018-07-31T12:47:10.630Z,39.97
2018-07-31T12:48:10.644Z,39.63
2018-07-31T12:49:10.617Z,39.01
2018-07-31T12:50:10.684Z,39.22
2018-07-31T12:51:10.607Z,39.17
2018-07-31T12:52:10.596Z,39.28